Time;durP1;ratioP1;P1;durP2;ratioP2;P2;SDS_P1;SDS_P2;PMS_P1;PMS_P2;Temp;Humidity;BMP_temperature;BMP_pressure;BME280_temperature;BME280_humidity;BME280_pressure;Samples;Min_cycle;Max_cycle;Signal;HPM_P1;HPM_P2
2021/12/02 00:02:18;;;;;;;4.20;0.80;;;;;;;3.68;100.00;98221.91;4999471;28;20057;-81
2021/12/02 00:04:44;;;;;;;5.78;1.05;;;;;;;3.71;100.00;98223.53;4998239;28;20041;-81
2021/12/02 00:07:10;;;;;;;3.38;0.88;;;;;;;3.71;100.00;98226.13;4997995;28;20026;-80
2021/12/02 00:09:37;;;;;;;3.15;0.95;;;;;;;3.61;100.00;98231.59;4997835;28;20046;-80
2021/12/02 00:12:04;;;;;;;1.90;0.80;;;;;;;3.63;100.00;98232.41;4997948;28;20094;-80
2021/12/02 00:14:38;;;;;;;5.95;1.90;;;;;;;3.66;100.00;98231.44;4997651;28;20500;-80
2021/12/02 00:17:07;;;;;;;4.75;1.40;;;;;;;3.68;100.00;98227.91;4996988;28;20034;-80
2021/12/02 00:22:19;;;;;;;1.92;0.65;;;;;;;3.65;100.00;98235.78;4997637;28;20061;-81
2021/12/02 00:24:47;;;;;;;2.90;0.73;;;;;;;3.59;100.00;98237.72;4997805;28;20033;-81
2021/12/02 00:27:13;;;;;;;2.47;0.60;;;;;;;3.66;100.00;98234.03;4997989;28;20037;-80
2021/12/02 00:29:41;;;;;;;;;;;;;;;3.66;100.00;98237.47;4998281;28;20062;-81
2021/12/02 00:32:08;;;;;;;;;;;;;;;3.67;100.00;98239.16;4997373;28;20283;-81
2021/12/02 00:34:41;;;;;;;5.30;1.08;;;;;;;3.69;100.00;98245.13;4995440;28;19926;-80
2021/12/02 00:37:07;;;;;;;6.85;2.05;;;;;;;3.74;100.00;98239.78;4995794;28;20045;-79
2021/12/02 00:39:34;;;;;;;7.00;0.90;;;;;;;3.82;100.00;98245.53;4996762;28;20062;-79
2021/12/02 00:41:59;;;;;;;;;;;;;;;3.74;100.00;98244.94;4997379;28;20384;-80
2021/12/02 00:44:24;;;;;;;3.50;0.88;;;;;;;3.75;100.00;98244.06;4997185;28;19910;-79
2021/12/02 00:46:50;;;;;;;1.30;0.55;;;;;;;3.75;100.00;98243.22;4995282;28;20117;-80
2021/12/02 00:49:18;;;;;;;7.18;2.33;;;;;;;3.74;100.00;98246.69;4996973;28;20524;-80
2021/12/02 00:51:50;;;;;;;7.20;1.38;;;;;;;3.73;100.00;98251.03;4996420;28;20544;-79
2021/12/02 00:54:17;;;;;;;4.45;0.80;;;;;;;3.79;100.00;98243.06;4996345;28;20030;-80
2021/12/02 00:56:43;;;;;;;6.38;1.23;;;;;;;3.79;100.00;98244.78;4996390;28;20026;-80
2021/12/02 00:59:09;;;;;;;23.83;2.00;;;;;;;3.86;100.00;98248.88;4996549;28;20458;-80
2021/12/02 01:01:37;;;;;;;4.38;1.40;;;;;;;3.79;100.00;98247.38;4996958;28;20469;-80
2021/12/02 01:04:09;;;;;;;5.68;1.45;;;;;;;3.82;100.00;98250.72;4997053;28;20050;-79
2021/12/02 01:06:35;;;;;;;2.38;0.95;;;;;;;3.89;100.00;98249.59;4996760;28;20087;-79
2021/12/02 01:09:01;;;;;;;4.15;1.33;;;;;;;3.86;100.00;98251.44;4995026;28;20220;-80
2021/12/02 01:11:26;;;;;;;3.58;1.15;;;;;;;3.87;100.00;98254.00;4995878;28;20092;-79
2021/12/02 01:13:52;;;;;;;5.88;1.15;;;;;;;3.84;100.00;98255.84;4996498;28;20113;-79
2021/12/02 01:16:19;;;;;;;3.80;0.95;;;;;;;3.84;100.00;98259.28;4996384;28;20480;-79
2021/12/02 01:18:45;;;;;;;3.45;1.25;;;;;;;3.86;100.00;98260.06;4995736;28;20045;-79
2021/12/02 01:21:17;;;;;;;7.80;1.20;;;;;;;3.87;100.00;98260.91;4995536;28;20034;-80
2021/12/02 01:23:44;;;;;;;5.57;1.08;;;;;;;3.88;100.00;98262.59;4996161;28;20031;-78
2021/12/02 01:26:10;;;;;;;4.03;0.90;;;;;;;3.88;100.00;98262.59;4995416;28;20038;-79
2021/12/02 01:28:37;;;;;;;7.75;1.10;;;;;;;3.88;100.00;98260.00;4995689;28;20026;-78
2021/12/02 01:31:03;;;;;;;12.60;1.45;;;;;;;3.84;100.00;98261.00;4995390;28;20081;-79
2021/12/02 01:33:28;;;;;;;5.63;1.10;;;;;;;3.82;100.00;98268.81;4949286;28;20074;-79
2021/12/02 01:36:00;;;;;;;2.25;0.80;;;;;;;3.82;100.00;98265.38;4996017;28;20038;-79
2021/12/02 01:38:28;;;;;;;9.93;1.55;;;;;;;3.87;100.00;98260.91;4995820;28;20117;-79
2021/12/02 01:40:55;;;;;;;7.03;1.23;;;;;;;3.87;100.00;98258.31;4995449;28;20544;-79
2021/12/02 01:43:31;;;;;;;2.25;0.82;;;;;;;3.90;100.00;98261.66;4995728;28;20109;-79
2021/12/02 01:45:57;;;;;;;4.72;1.40;;;;;;;3.93;100.00;98268.47;4995349;28;20029;-79
2021/12/02 01:48:24;;;;;;;6.40;1.10;;;;;;;3.92;100.00;98261.59;4995550;28;20030;-79
2021/12/02 01:51:01;;;;;;;2.05;0.75;;;;;;;3.86;100.00;98259.22;4995422;28;20031;-79
2021/12/02 01:53:34;;;;;;;7.10;1.35;;;;;;;3.83;100.00;98262.75;4994455;28;20468;-79
2021/12/02 01:56:20;;;;;;;4.65;1.30;;;;;;;3.82;100.00;98260.22;4995824;28;20066;-78
2021/12/02 01:58:49;;;;;;;4.53;0.82;;;;;;;3.85;100.00;98260.97;4995434;28;20097;-79
2021/12/02 02:01:25;;;;;;;6.20;1.38;;;;;;;3.87;100.00;98263.50;4994572;28;20081;-79
2021/12/02 02:03:53;;;;;;;3.00;1.30;;;;;;;3.85;100.00;98265.28;4995975;28;20469;-79
2021/12/02 02:06:29;;;;;;;1.77;0.70;;;;;;;3.82;100.00;98265.38;4994232;28;20026;-77
2021/12/02 02:08:59;;;;;;;5.03;1.30;;;;;;;3.81;100.00;98272.31;4993770;28;20077;-77
2021/12/02 02:11:27;;;;;;;4.47;1.48;;;;;;;3.84;100.00;98269.63;4995552;28;20037;-77
2021/12/02 02:13:53;;;;;;;2.63;1.00;;;;;;;3.77;100.00;98260.38;4997339;28;20500;-77
2021/12/02 02:16:19;;;;;;;;;;;;;;;3.79;100.00;98263.75;4998031;28;20030;-77
2021/12/02 02:18:44;;;;;;;3.15;1.40;;;;;;;3.81;100.00;98261.97;4995969;28;19910;-76
2021/12/02 02:21:13;;;;;;;5.18;1.75;;;;;;;3.83;100.00;98265.34;4996859;28;20034;-77
2021/12/02 02:23:46;;;;;;;4.88;1.13;;;;;;;3.80;100.00;98262.84;4997122;28;20034;-77
2021/12/02 02:26:11;;;;;;;2.85;1.02;;;;;;;3.86;100.00;98254.88;5012040;28;20472;-76
2021/12/02 02:28:37;;;;;;;2.78;1.27;;;;;;;3.87;100.00;98247.97;4997464;28;20030;-77
2021/12/02 02:31:03;;;;;;;3.85;1.13;;;;;;;3.78;100.00;98245.69;4995778;28;20034;-77
2021/12/02 02:33:36;;;;;;;;;;;;;;;3.74;100.00;98247.53;4997078;28;20461;-77
2021/12/02 02:36:06;;;;;;;4.05;1.17;;;;;;;3.75;100.00;98246.63;4996825;28;19916;-77
2021/12/02 02:38:32;;;;;;;3.30;1.15;;;;;;;3.72;100.00;98251.91;4996151;28;20046;-77
2021/12/02 02:41:00;;;;;;;;;;;;;;;3.65;100.00;98250.47;4995703;28;20026;-77
2021/12/02 02:43:26;;;;;;;1.83;0.70;;;;;;;3.58;100.00;98252.41;4996749;28;19914;-77
2021/12/02 02:45:52;;;;;;;3.20;1.08;;;;;;;3.56;100.00;98249.00;5011683;28;20034;-77
2021/12/02 02:48:17;;;;;;;5.65;1.00;;;;;;;3.57;100.00;98258.47;4996199;28;20465;-77
2021/12/02 02:50:42;;;;;;;2.77;1.07;;;;;;;3.48;100.00;98252.75;4996423;28;20117;-77
2021/12/02 02:53:17;;;;;;;4.33;1.50;;;;;;;3.45;100.00;98250.25;4996612;28;20258;-77
2021/12/02 02:55:48;;;;;;;2.55;1.00;;;;;;;3.43;100.00;98255.47;4997265;28;20261;-77
2021/12/02 03:00:54;;;;;;;5.72;1.05;;;;;;;3.48;100.00;98257.91;4997141;28;20125;-77
2021/12/02 03:03:35;;;;;;;5.53;1.08;;;;;;;3.60;100.00;98262.69;4996919;28;20065;-77
2021/12/02 03:06:28;;;;;;;3.35;0.60;;;;;;;3.49;100.00;98251.84;4996466;28;20026;-77
2021/12/02 03:09:02;;;;;;;6.82;0.95;;;;;;;3.48;100.00;98263.09;4996552;28;20037;-77
2021/12/02 03:11:37;;;;;;;2.78;0.80;;;;;;;3.39;100.00;98261.63;4996943;28;20041;-77
2021/12/02 03:14:10;;;;;;;2.30;0.70;;;;;;;3.35;100.00;98270.38;4996848;28;20030;-77
2021/12/02 03:16:45;;;;;;;5.13;1.83;;;;;;;3.36;100.00;98270.34;4996191;28;20057;-77
2021/12/02 03:19:14;;;;;;;2.70;1.02;;;;;;;3.40;100.00;98255.56;4996029;28;20499;-77
2021/12/02 03:21:40;;;;;;;2.63;1.00;;;;;;;3.39;100.00;98266.81;4994993;28;20066;-77
2021/12/02 03:24:06;;;;;;;5.20;1.13;;;;;;;3.53;100.00;98263.78;4995895;28;20128;-77
2021/12/02 03:26:32;;;;;;;5.20;0.80;;;;;;;3.54;100.00;98257.72;4995822;28;20030;-77
2021/12/02 03:28:58;;;;;;;;;;;;;;;3.55;100.00;98257.66;4996093;28;20030;-77
2021/12/02 03:31:23;;;;;;;2.30;0.90;;;;;;;3.40;100.00;98265.06;4995423;28;19964;-77
2021/12/02 03:33:50;;;;;;;2.78;0.75;;;;;;;3.44;100.00;98271.84;4953426;28;20054;-77
2021/12/02 03:36:17;;;;;;;2.58;0.90;;;;;;;3.40;100.00;98272.84;4996167;28;20054;-77
2021/12/02 03:38:43;;;;;;;2.55;0.90;;;;;;;3.37;100.00;98268.59;4995784;28;20050;-77
2021/12/02 03:41:08;;;;;;;;;;;;;;;3.40;100.00;98265.06;4996516;28;20042;-77
2021/12/02 03:43:38;;;;;;;4.10;1.23;;;;;;;3.36;100.00;98280.69;4995682;28;19935;-77
2021/12/02 03:46:05;;;;;;;2.28;1.13;;;;;;;3.53;100.00;98264.63;4995285;28;20030;-77
2021/12/02 03:48:30;;;;;;;4.63;1.67;;;;;;;3.45;100.00;98268.34;4995128;28;20073;-77
2021/12/02 03:50:56;;;;;;;6.13;1.33;;;;;;;3.49;100.00;98267.38;4995231;28;20030;-77
2021/12/02 03:53:21;;;;;;;3.67;1.02;;;;;;;3.44;100.00;98274.44;4995255;28;20038;-77
2021/12/02 03:55:47;;;;;;;3.97;1.52;;;;;;;3.40;100.00;98273.69;4995014;28;20436;-77
2021/12/02 03:58:12;;;;;;;5.03;1.20;;;;;;;3.51;100.00;98265.56;4995195;28;20065;-77
2021/12/02 04:00:38;;;;;;;2.47;0.90;;;;;;;3.40;100.00;98257.31;4994679;28;20027;-77
2021/12/02 04:03:03;;;;;;;3.50;0.80;;;;;;;3.35;100.00;98265.22;5010136;28;20409;-77
2021/12/02 04:05:29;;;;;;;2.27;0.87;;;;;;;3.27;100.00;98269.81;5010198;28;20038;-77
2021/12/02 04:07:55;;;;;;;1.98;1.05;;;;;;;3.30;100.00;98273.16;4994997;28;20254;-77
2021/12/02 04:10:21;;;;;;;2.72;0.82;;;;;;;3.25;100.00;98271.59;4994773;28;20042;-77
2021/12/02 04:15:17;;;;;;;3.37;1.10;;;;;;;3.25;100.00;98269.88;4994703;28;20117;-77
2021/12/02 04:17:43;;;;;;;3.72;1.08;;;;;;;3.24;100.00;98263.00;4994586;28;20254;-77
2021/12/02 04:20:14;;;;;;;3.95;1.00;;;;;;;3.23;100.00;98265.63;4994721;28;20030;-77
2021/12/02 04:22:40;;;;;;;3.17;0.95;;;;;;;3.26;100.00;98271.56;4994251;28;20058;-76
2021/12/02 04:25:07;;;;;;;5.05;1.10;;;;;;;3.20;100.00;98269.16;4994161;28;20033;-77
2021/12/02 04:27:33;;;;;;;4.65;1.33;;;;;;;3.24;100.00;98278.50;4994306;28;20049;-77
2021/12/02 04:29:58;;;;;;;3.25;1.00;;;;;;;3.23;100.00;98275.97;4994395;28;20397;-77
2021/12/02 04:32:23;;;;;;;3.83;1.47;;;;;;;3.29;100.00;98279.22;4994091;28;20064;-77
2021/12/02 04:34:49;;;;;;;6.50;2.03;;;;;;;3.28;100.00;98285.28;4994727;28;20227;-77
2021/12/02 04:37:14;;;;;;;3.17;1.20;;;;;;;3.26;100.00;98286.22;4994512;28;20431;-78
2021/12/02 04:39:39;;;;;;;4.80;1.13;;;;;;;3.26;100.00;98287.06;4994266;28;20285;-77
2021/12/02 04:42:05;;;;;;;6.40;1.10;;;;;;;3.25;100.00;98297.47;4994172;28;20725;-77
2021/12/02 04:44:30;;;;;;;2.65;1.13;;;;;;;3.18;100.00;98296.78;4993800;28;20456;-77
2021/12/02 04:46:56;;;;;;;2.65;1.00;;;;;;;3.30;100.00;98293.00;4994284;28;20038;-77
2021/12/02 04:49:21;;;;;;;3.53;1.33;;;;;;;3.23;100.00;98288.91;4993966;28;20440;-77
2021/12/02 04:51:46;;;;;;;3.00;1.20;;;;;;;3.20;100.00;98289.00;4995962;28;20508;-78
2021/12/02 04:54:12;;;;;;;2.72;0.90;;;;;;;3.15;100.00;98286.53;5009822;28;20033;-78
2021/12/02 04:56:37;;;;;;;2.97;1.00;;;;;;;3.05;100.00;98292.03;4994015;28;20034;-77
2021/12/02 04:59:03;;;;;;;4.47;1.10;;;;;;;3.16;100.00;98292.56;5009118;28;20026;-77
2021/12/02 05:01:28;;;;;;;1.77;0.70;;;;;;;3.00;100.00;98300.78;4994445;28;20034;-76
2021/12/02 05:03:54;;;;;;;3.60;0.80;;;;;;;3.10;100.00;98301.34;4994064;28;20496;-78
2021/12/02 05:06:19;;;;;;;3.67;0.70;;;;;;;3.05;100.00;98300.63;4994843;28;20093;-78
2021/12/02 05:08:44;;;;;;;2.78;0.80;;;;;;;2.98;100.00;98288.78;4994805;28;20034;-78
2021/12/02 05:11:10;;;;;;;1.67;0.90;;;;;;;2.91;100.00;98295.06;4994647;28;20117;-78
2021/12/02 05:13:35;;;;;;;5.00;1.00;;;;;;;2.83;100.00;98292.69;4994609;28;20257;-78
2021/12/02 05:16:01;;;;;;;5.43;1.00;;;;;;;2.78;100.00;98294.56;4994982;28;20598;-78
2021/12/02 05:18:26;;;;;;;3.10;0.90;;;;;;;2.85;100.00;98298.66;4995037;28;20460;-78
2021/12/02 05:20:51;;;;;;;1.85;0.73;;;;;;;2.93;100.00;98291.53;4994779;28;20054;-78
2021/12/02 05:23:17;;;;;;;2.47;1.00;;;;;;;2.91;100.00;98293.31;4995015;28;20034;-78
2021/12/02 05:25:44;;;;;;;3.70;1.33;;;;;;;2.92;100.00;98289.84;4997574;28;20041;-79
2021/12/02 05:28:15;;;;;;;2.15;0.75;;;;;;;2.96;100.00;98294.03;4996799;28;20073;-79
2021/12/02 05:30:41;;;;;;;2.67;1.20;;;;;;;2.98;100.00;98292.22;4996037;28;20038;-79
2021/12/02 05:33:06;;;;;;;;;;;;;;;3.06;100.00;98297.16;4996571;28;20030;-79
2021/12/02 05:35:32;;;;;;;2.88;1.08;;;;;;;3.06;100.00;98288.56;4996246;28;19944;-78
2021/12/02 05:37:57;;;;;;;2.95;1.33;;;;;;;2.96;100.00;98288.03;4950061;28;20051;-79
2021/12/02 05:40:22;;;;;;;2.45;0.90;;;;;;;2.96;100.00;98294.03;4996038;28;20393;-78
2021/12/02 05:42:48;;;;;;;4.30;0.90;;;;;;;2.96;100.00;98291.44;4995619;28;20041;-78
2021/12/02 05:45:13;;;;;;;2.63;1.03;;;;;;;2.93;100.00;98285.53;4997853;28;20453;-78
2021/12/02 05:47:39;;;;;;;5.45;1.13;;;;;;;2.90;100.00;98293.38;4997878;28;20257;-77
2021/12/02 05:50:05;;;;;;;3.35;1.30;;;;;;;2.93;100.00;98291.53;4998320;28;20038;-78
2021/12/02 05:52:31;;;;;;;2.85;0.88;;;;;;;2.84;100.00;98291.81;4998333;28;20045;-78
2021/12/02 05:54:57;;;;;;;3.35;1.10;;;;;;;2.81;100.00;98291.06;4997573;28;20914;-77
2021/12/02 05:57:23;;;;;;;6.90;1.60;;;;;;;2.80;100.00;98297.09;4998052;28;20034;-78
2021/12/02 05:59:48;;;;;;;3.05;1.23;;;;;;;2.69;100.00;98302.56;4998011;28;20030;-78
2021/12/02 06:02:14;;;;;;;4.13;1.23;;;;;;;2.74;100.00;98307.63;4997507;28;20030;-78
2021/12/02 06:04:40;;;;;;;3.67;1.40;;;;;;;2.78;100.00;98296.31;4998068;28;20261;-78
2021/12/02 06:07:05;;;;;;;2.33;1.15;;;;;;;2.61;100.00;98307.97;4998859;28;20041;-78
2021/12/02 06:09:31;;;;;;;2.35;0.90;;;;;;;2.62;100.00;98313.97;5000027;28;20046;-78
2021/12/02 06:11:56;;;;;;;2.58;0.98;;;;;;;2.62;100.00;98319.13;4998943;28;20034;-78
2021/12/02 06:14:22;;;;;;;4.97;1.43;;;;;;;2.69;100.00;98324.09;4997953;28;20073;-78
2021/12/02 06:16:47;;;;;;;2.27;1.00;;;;;;;2.71;100.00;98318.88;4997633;28;20285;-78
2021/12/02 06:19:12;;;;;;;4.63;1.23;;;;;;;2.77;100.00;98326.47;4997032;28;20324;-78
2021/12/02 06:21:38;;;;;;;2.05;0.90;;;;;;;2.75;100.00;98330.81;4997162;28;20035;-78
2021/12/02 06:24:05;;;;;;;;;;;;;;;2.77;100.00;98329.03;4997989;28;20113;-78
2021/12/02 06:26:31;;;;;;;3.17;1.27;;;;;;;2.66;100.00;98337.09;4997309;28;19925;-77
2021/12/02 06:28:57;;;;;;;4.97;1.75;;;;;;;2.72;100.00;98333.50;4997716;28;20117;-79
2021/12/02 06:31:24;;;;;;;5.43;2.00;;;;;;;2.79;100.00;98332.44;4998181;28;20172;-78
2021/12/02 06:33:49;;;;;;;3.67;1.50;;;;;;;2.81;100.00;98338.41;4998858;28;20042;-78
2021/12/02 06:36:14;;;;;;;19.38;4.95;;;;;;;2.83;100.00;98336.63;4998256;28;20389;-78
2021/12/02 06:38:41;;;;;;;6.97;2.67;;;;;;;2.82;100.00;98341.84;4997871;28;20078;-78
2021/12/02 06:41:07;;;;;;;5.00;1.85;;;;;;;2.84;100.00;98340.06;4997310;28;20034;-78
2021/12/02 06:43:32;;;;;;;6.72;2.10;;;;;;;2.75;100.00;98342.88;4997831;28;20049;-78
2021/12/02 06:45:58;;;;;;;4.85;2.05;;;;;;;2.72;100.00;98346.41;4997974;28;20030;-78
2021/12/02 06:48:23;;;;;;;9.15;2.85;;;;;;;2.82;100.00;98347.00;4997749;28;20389;-78
2021/12/02 06:50:49;;;;;;;6.28;3.53;;;;;;;2.93;100.00;98355.28;4996970;28;20037;-78
2021/12/02 06:53:16;;;;;;;5.15;2.58;;;;;;;3.09;100.00;98351.34;4996977;28;20056;-78
2021/12/02 06:55:42;;;;;;;5.15;2.40;;;;;;;3.14;100.00;98351.22;4997487;28;20072;-78
2021/12/02 06:58:08;;;;;;;8.15;2.70;;;;;;;3.03;100.00;98349.78;4997567;28;20042;-78
2021/12/02 07:00:33;;;;;;;8.63;2.83;;;;;;;3.10;100.00;98358.22;4998250;28;20097;-78
2021/12/02 07:03:01;;;;;;;4.90;2.00;;;;;;;2.97;100.00;98360.31;4997470;28;20262;-78
2021/12/02 07:05:27;;;;;;;9.30;2.85;;;;;;;2.72;100.00;98353.31;4997022;28;20392;-78
2021/12/02 07:07:53;;;;;;;4.65;2.25;;;;;;;2.72;100.00;98359.31;4996815;28;20062;-78
2021/12/02 07:10:22;;;;;;;8.13;2.22;;;;;;;2.89;100.00;98369.19;4995935;28;20491;-78
2021/12/02 07:12:51;;;;;;;9.20;2.40;;;;;;;2.91;100.00;98359.66;4997783;28;20038;-79
2021/12/02 07:15:21;;;;;;;6.68;2.50;;;;;;;2.85;100.00;98362.41;4996324;28;20065;-77
2021/12/02 07:17:54;;;;;;;5.93;2.80;;;;;;;2.81;100.00;98365.97;4995078;28;20034;-77
2021/12/02 07:20:19;;;;;;;6.82;2.63;;;;;;;2.89;100.00;98369.19;4996176;28;20377;-77
2021/12/02 07:22:45;;;;;;;7.47;2.53;;;;;;;2.78;100.00;98374.66;4994214;28;20488;-77
2021/12/02 07:25:10;;;;;;;6.97;2.70;;;;;;;2.76;100.00;98385.91;4996569;28;20041;-78
2021/12/02 07:27:36;;;;;;;5.20;2.42;;;;;;;2.85;100.00;98380.50;4997207;28;20262;-78
2021/12/02 07:30:04;;;;;;;10.40;3.35;;;;;;;2.73;100.00;98389.44;4997588;28;20507;-78
2021/12/02 07:32:37;;;;;;;7.43;3.88;;;;;;;2.59;100.00;98387.25;4998365;28;20077;-79
2021/12/02 07:35:10;;;;;;;9.40;3.53;;;;;;;2.47;100.00;98397.91;4953906;28;20220;-79
2021/12/02 07:37:35;;;;;;;6.68;2.88;;;;;;;2.50;100.00;98402.13;4997953;28;20038;-78
2021/12/02 07:40:02;;;;;;;8.73;4.05;;;;;;;2.40;100.00;98396.34;4998425;28;20038;-78
2021/12/02 07:42:28;;;;;;;10.02;3.72;;;;;;;2.37;100.00;98413.66;5011165;28;20038;-78
2021/12/02 07:44:54;;;;;;;;;;;;;;;2.36;100.00;98402.50;4997277;28;20034;-79
2021/12/02 07:47:20;;;;;;;7.40;3.13;;;;;;;2.35;100.00;98416.28;4995565;28;20024;-78
2021/12/02 07:49:49;;;;;;;9.75;2.78;;;;;;;2.27;100.00;98413.88;4996370;28;20088;-79
2021/12/02 07:52:18;;;;;;;7.72;2.45;;;;;;;2.25;100.00;98423.41;4996891;28;20034;-78
2021/12/02 07:54:46;;;;;;;7.35;3.17;;;;;;;2.38;100.00;98425.69;4997716;28;20027;-78
2021/12/02 07:57:13;;;;;;;6.53;2.30;;;;;;;2.30;100.00;98420.72;5002779;28;20030;-78
2021/12/02 07:59:40;;;;;;;6.35;2.75;;;;;;;2.38;100.00;98425.69;4995890;28;20041;-78
2021/12/02 08:02:05;;;;;;;6.72;2.60;;;;;;;2.46;100.00;98421.19;4996650;28;20038;-78
2021/12/02 08:04:31;;;;;;;7.60;2.85;;;;;;;2.45;100.00;98428.06;4996585;28;20042;-78
2021/12/02 08:06:56;;;;;;;5.28;1.95;;;;;;;2.39;100.00;98427.38;4995569;28;20532;-79
2021/12/02 08:09:21;;;;;;;4.70;2.10;;;;;;;2.30;100.00;98441.38;4995643;28;20030;-78
2021/12/02 08:11:47;;;;;;;7.10;2.67;;;;;;;2.22;100.00;98440.72;4996043;28;20079;-77
2021/12/02 08:14:15;;;;;;;7.65;2.05;;;;;;;2.21;100.00;98439.03;4996209;28;20031;-78
2021/12/02 08:16:41;;;;;;;5.85;2.13;;;;;;;2.26;100.00;98448.34;4996303;28;20038;-78
2021/12/02 08:19:07;;;;;;;3.53;1.70;;;;;;;2.34;100.00;98445.56;4994901;28;20117;-78
2021/12/02 08:21:32;;;;;;;4.53;2.23;;;;;;;2.28;100.00;98449.16;4996075;28;20065;-78
2021/12/02 08:23:57;;;;;;;4.95;1.95;;;;;;;2.27;100.00;98455.19;4995789;28;20269;-78
2021/12/02 08:26:23;;;;;;;4.20;1.93;;;;;;;2.34;100.00;98456.75;4994557;28;20503;-78
2021/12/02 08:28:48;;;;;;;4.37;1.80;;;;;;;2.42;100.00;98460.88;4994983;28;20760;-78
2021/12/02 08:31:15;;;;;;;6.07;2.17;;;;;;;2.35;100.00;98466.19;4995806;28;20308;-78
2021/12/02 08:33:41;;;;;;;5.55;2.10;;;;;;;2.25;100.00;98472.44;4995323;28;20362;-77
2021/12/02 08:36:06;;;;;;;6.20;2.10;;;;;;;2.08;100.00;98479.78;4996213;28;20113;-78
2021/12/02 08:38:33;;;;;;;3.40;1.67;;;;;;;2.09;100.00;98478.88;4995344;28;20050;-78
2021/12/02 08:41:02;;;;;;;6.80;1.98;;;;;;;2.19;100.00;98493.28;4995963;28;20049;-78
2021/12/02 08:43:29;;;;;;;6.38;1.95;;;;;;;2.09;100.00;98483.19;4995600;28;20037;-78
2021/12/02 08:45:55;;;;;;;4.00;1.77;;;;;;;2.08;100.00;98494.41;5010128;28;20101;-78
2021/12/02 08:48:21;;;;;;;5.95;2.28;;;;;;;2.14;100.00;98492.53;4994691;28;20057;-78
2021/12/02 08:50:47;;;;;;;7.30;2.97;;;;;;;2.17;100.00;98495.03;4995244;28;20429;-78
2021/12/02 08:53:13;;;;;;;6.03;2.08;;;;;;;2.22;100.00;98495.78;4995159;28;20042;-78
2021/12/02 08:55:39;;;;;;;8.43;2.30;;;;;;;2.27;100.00;98500.81;4994900;28;20117;-78
2021/12/02 08:58:07;;;;;;;;;;;;;;;2.21;100.00;98500.97;4995710;28;20034;-78
2021/12/02 09:00:36;;;;;;;;;;;;;;;2.24;100.00;98506.03;4994553;28;19935;-78
2021/12/02 09:03:07;;;;;;;6.90;2.33;;;;;;;2.45;100.00;98505.53;4995227;28;20356;-78
2021/12/02 09:05:32;;;;;;;6.45;2.97;;;;;;;2.37;100.00;98511.75;4994529;28;20030;-77
2021/12/02 09:07:58;;;;;;;10.80;3.00;;;;;;;2.46;100.00;98512.41;4994561;28;20030;-77
2021/12/02 09:10:25;;;;;;;9.32;2.47;;;;;;;2.43;100.00;98509.88;4995267;28;20121;-77
2021/12/02 09:12:51;;;;;;;8.13;2.83;;;;;;;2.63;100.00;98510.22;4995483;28;20069;-78
2021/12/02 09:15:17;;;;;;;6.38;2.60;;;;;;;2.76;100.00;98512.50;4999974;28;20412;-78
2021/12/02 09:17:43;;;;;;;7.20;3.15;;;;;;;2.95;100.00;98514.56;5015536;28;20409;-78
2021/12/02 09:20:11;;;;;;;7.15;2.67;;;;;;;2.95;100.00;98518.91;5000052;28;20108;-79
2021/12/02 09:22:37;;;;;;;7.47;2.97;;;;;;;2.64;100.00;98524.00;4999356;28;20408;-76
2021/12/02 09:25:05;;;;;;;6.35;2.92;;;;;;;2.62;100.00;98534.34;4997382;28;20109;-76
2021/12/02 09:27:31;;;;;;;5.32;2.80;;;;;;;2.45;100.00;98544.28;4997035;28;20056;-77
2021/12/02 09:29:56;;;;;;;6.85;3.10;;;;;;;2.37;100.00;98535.84;4997120;28;20448;-76
2021/12/02 09:32:31;;;;;;;7.53;3.45;;;;;;;2.32;100.00;98546.28;4998617;28;20042;-79
2021/12/02 09:34:56;;;;;;;8.07;3.40;;;;;;;2.37;100.00;98550.50;4939626;28;20077;-79
2021/12/02 09:37:22;;;;;;;7.88;3.75;;;;;;;2.43;100.00;98553.78;4998306;28;20488;-76
2021/12/02 09:39:47;;;;;;;7.68;3.45;;;;;;;2.38;100.00;98547.03;4996959;28;20109;-76
2021/12/02 09:42:14;;;;;;;8.90;3.30;;;;;;;2.29;100.00;98550.66;4995862;28;20045;-77
2021/12/02 09:44:40;;;;;;;5.82;2.45;;;;;;;2.44;100.00;98557.22;4996916;28;20026;-77
2021/12/02 09:47:07;;;;;;;4.78;2.25;;;;;;;2.20;100.00;98561.22;4996062;28;20061;-76
2021/12/02 09:49:33;;;;;;;;;;;;;;;2.17;100.00;98567.31;4997176;28;20030;-77
2021/12/02 09:52:12;;;;;;;3.70;1.75;;;;;;;2.16;100.00;98570.78;4995643;28;19913;-77
2021/12/02 09:54:41;;;;;;;6.22;1.70;;;;;;;2.28;100.00;98573.06;4997126;28;20065;-77
2021/12/02 09:57:12;;;;;;;3.47;1.20;;;;;;;2.19;100.00;98565.53;4995441;28;20030;-77
2021/12/02 10:02:09;;;;;;;4.57;1.92;;;;;;;2.19;100.00;98565.53;4997365;28;20027;-79
2021/12/02 10:04:42;;;;;;;4.82;1.95;;;;;;;2.31;100.00;98572.13;4999181;28;20461;-79
2021/12/02 10:07:15;;;;;;;4.82;2.33;;;;;;;2.43;100.00;98571.84;4996514;28;20146;-77
2021/12/02 10:12:48;;;;;;;4.47;1.45;;;;;;;2.60;100.00;98572.28;4996414;28;20039;-77
2021/12/02 10:15:15;;;;;;;5.38;1.92;;;;;;;2.57;100.00;98571.53;4996205;28;20030;-77
2021/12/02 10:17:50;;;;;;;4.47;1.70;;;;;;;2.65;100.00;98575.59;4996356;28;20484;-77
2021/12/02 10:20:23;;;;;;;5.38;1.58;;;;;;;2.69;100.00;98577.22;4996196;28;20501;-77
2021/12/02 10:25:39;;;;;;;8.18;2.28;;;;;;;2.61;100.00;98567.97;4996131;28;20066;-77
2021/12/02 10:28:05;;;;;;;4.20;1.65;;;;;;;2.66;100.00;98569.56;4995893;28;20527;-77
2021/12/02 10:30:30;;;;;;;4.50;2.00;;;;;;;2.41;100.00;98568.47;4996190;28;20026;-76
2021/12/02 10:32:55;;;;;;;9.10;1.92;;;;;;;2.43;100.00;98577.03;4996743;28;20389;-77
2021/12/02 10:35:36;;;;;;;4.10;1.63;;;;;;;2.52;100.00;98576.81;4995958;28;20069;-77
2021/12/02 10:38:01;;;;;;;6.07;2.00;;;;;;;2.48;100.00;98577.78;4995498;28;20453;-77
2021/12/02 10:40:27;;;;;;;5.77;2.33;;;;;;;2.58;100.00;98584.41;4995929;28;20037;-77
2021/12/02 10:42:52;;;;;;;6.15;2.13;;;;;;;2.48;100.00;98576.91;4995319;28;20305;-78
2021/12/02 10:45:23;;;;;;;7.18;2.03;;;;;;;2.44;100.00;98576.13;4996636;28;20421;-78
2021/12/02 10:47:51;;;;;;;6.18;2.10;;;;;;;2.55;100.00;98576.75;4996549;28;20031;-78
2021/12/02 10:50:17;;;;;;;5.22;2.20;;;;;;;2.49;100.00;98576.88;4996737;28;20058;-77
2021/12/02 10:52:42;;;;;;;5.47;2.25;;;;;;;2.66;100.00;98569.56;4996554;28;20067;-78
2021/12/02 10:55:18;;;;;;;6.95;2.85;;;;;;;2.69;100.00;98572.06;4997130;28;20027;-78
2021/12/02 10:57:47;;;;;;;4.47;2.00;;;;;;;2.67;100.00;98578.16;4996610;28;20036;-78
2021/12/02 11:00:15;;;;;;;5.43;1.90;;;;;;;2.51;100.00;98577.69;4997138;28;20045;-78
2021/12/02 11:02:48;;;;;;;5.72;1.92;;;;;;;2.58;100.00;98575.81;4995325;28;20069;-77
2021/12/02 11:05:31;;;;;;;4.90;1.80;;;;;;;2.69;100.00;98579.81;4996736;28;20038;-78
2021/12/02 11:08:08;;;;;;;6.28;2.00;;;;;;;2.71;100.00;98576.34;4996725;28;20022;-78
2021/12/02 11:10:39;;;;;;;4.03;1.50;;;;;;;2.82;100.00;98574.34;4994999;28;20031;-77
2021/12/02 11:13:07;;;;;;;6.38;2.08;;;;;;;2.84;100.00;98585.50;4996411;28;20026;-78
2021/12/02 11:15:34;;;;;;;5.53;1.85;;;;;;;2.73;100.00;98584.91;4996635;28;20053;-78
2021/12/02 11:18:08;;;;;;;3.92;1.83;;;;;;;2.85;100.00;98589.78;4997495;28;20436;-78
2021/12/02 11:20:38;;;;;;;5.53;2.05;;;;;;;2.86;100.00;98587.16;4996370;28;20027;-78
2021/12/02 11:23:16;;;;;;;6.50;2.00;;;;;;;2.94;100.00;98589.56;4996472;28;20035;-78
2021/12/02 11:25:59;;;;;;;3.97;1.63;;;;;;;2.97;100.00;98590.31;4996076;28;20062;-78
2021/12/02 11:28:29;;;;;;;4.63;1.70;;;;;;;3.02;100.00;98585.00;4995770;28;20033;-78
2021/12/02 11:30:56;;;;;;;3.53;1.48;;;;;;;2.97;100.00;98584.31;4995763;28;20027;-77
2021/12/02 11:33:35;;;;;;;4.35;1.35;;;;;;;2.82;100.00;98582.97;4996157;28;20038;-77
2021/12/02 11:36:00;;;;;;;3.58;1.33;;;;;;;2.75;100.00;98583.13;4949714;28;20104;-77
2021/12/02 11:38:27;;;;;;;3.60;1.48;;;;;;;2.86;100.00;98583.72;4995884;28;20054;-78
2021/12/02 11:40:58;;;;;;;5.57;1.63;;;;;;;2.64;100.00;98581.66;4995075;28;20414;-77
2021/12/02 11:43:30;;;;;;;4.40;1.52;;;;;;;2.79;100.00;98584.75;4995632;28;20022;-77
2021/12/02 11:45:58;;;;;;;4.45;1.65;;;;;;;2.83;100.00;98576.91;4995029;28;20369;-78
2021/12/02 11:48:29;;;;;;;4.60;1.58;;;;;;;2.85;100.00;98588.06;4996020;28;20358;-78
2021/12/02 11:50:58;;;;;;;5.00;1.60;;;;;;;2.82;100.00;98585.53;4996428;28;20474;-78
2021/12/02 11:53:24;;;;;;;4.85;1.90;;;;;;;2.75;100.00;98591.75;4996992;28;20034;-77
2021/12/02 11:55:55;;;;;;;3.75;1.83;;;;;;;2.76;100.00;98595.16;4998201;28;20084;-78